Time;durP1;ratioP1;P1;durP2;ratioP2;P2;SDS_P1;SDS_P2;PMS_P1;PMS_P2;Temp;Humidity;BMP_temperature;BMP_pressure;BME280_temperature;BME280_humidity;BME280_pressure;Samples;Min_cycle;Max_cycle;Signal;HPM_P1;HPM_P2
2022/05/25 00:01:39;;;;;;;3.42;3.10;;;;;;;15.50;39.71;99573.36;1748388;80;21616;-67
2022/05/25 00:04:06;;;;;;;4.33;3.33;;;;;;;15.36;39.84;99576.42;1748606;81;21558;-67
2022/05/25 00:06:33;;;;;;;4.58;3.42;;;;;;;15.32;40.56;99580.22;1751034;80;22137;-67
2022/05/25 00:09:00;;;;;;;5.03;3.67;;;;;;;15.35;40.48;99579.16;1753535;80;21509;-67
2022/05/25 00:11:27;;;;;;;3.53;3.23;;;;;;;15.32;40.32;99573.59;1749105;80;21433;-67
2022/05/25 00:13:53;;;;;;;5.58;3.85;;;;;;;15.34;40.35;99576.16;1728134;81;21020;-66
2022/05/25 00:16:20;;;;;;;4.55;3.72;;;;;;;15.29;40.46;99575.59;1726541;81;21540;-66
2022/05/25 00:21:34;;;;;;;3.87;3.47;;;;;;;15.31;41.17;99577.66;1718620;81;21545;-66
2022/05/25 00:24:01;;;;;;;6.95;4.05;;;;;;;15.27;40.95;99578.33;1725953;81;21048;-66
2022/05/25 00:26:28;;;;;;;4.60;4.00;;;;;;;15.23;41.20;99585.25;1733394;81;21587;-67
2022/05/25 00:28:54;;;;;;;5.67;3.90;;;;;;;15.26;40.55;99583.75;1727512;81;21047;-69
2022/05/25 00:31:22;;;;;;;8.70;3.87;;;;;;;15.25;40.23;99588.17;1726095;81;21957;-67
2022/05/25 00:33:49;;;;;;;3.60;2.90;;;;;;;15.30;39.08;99587.90;1725094;81;21533;-68
2022/05/25 00:36:16;;;;;;;4.87;3.50;;;;;;;15.47;38.39;99581.53;1728775;81;21457;-67
2022/05/25 00:38:43;;;;;;;3.75;3.37;;;;;;;15.69;38.20;99584.95;1728464;81;21563;-67
2022/05/25 00:41:09;;;;;;;3.95;3.17;;;;;;;15.82;38.39;99581.90;1729383;81;21535;-67
2022/05/25 00:43:37;;;;;;;5.17;3.60;;;;;;;15.80;38.36;99579.83;1726736;81;21898;-68
2022/05/25 00:46:10;;;;;;;5.75;3.65;;;;;;;15.90;37.45;99575.64;1725616;81;21398;-68
2022/05/25 00:48:48;;;;;;;4.30;2.83;;;;;;;15.98;37.43;99579.11;1725055;81;21536;-69
2022/05/25 00:51:24;;;;;;;3.62;2.95;;;;;;;16.02;36.77;99581.08;1725970;81;20964;-68
2022/05/25 00:54:01;;;;;;;3.27;2.77;;;;;;;16.20;36.43;99582.52;1729168;81;21563;-68
2022/05/25 00:56:29;;;;;;;3.40;3.10;;;;;;;16.32;36.12;99579.50;1726446;81;21933;-68
2022/05/25 00:59:18;;;;;;;6.83;3.17;;;;;;;16.38;35.94;99591.50;1727359;81;21601;-68
2022/05/25 01:01:44;;;;;;;4.87;3.08;;;;;;;16.48;35.85;99586.80;1725115;81;21797;-68
2022/05/25 01:04:11;;;;;;;8.10;3.85;;;;;;;16.54;35.54;99590.36;1725679;81;21525;-67
2022/05/25 01:07:16;;;;;;;3.77;3.00;;;;;;;16.62;35.21;99591.64;1726657;81;21612;-67
2022/05/25 01:09:50;;;;;;;4.50;2.83;;;;;;;16.77;34.96;99593.72;1724170;81;21387;-67
2022/05/25 01:12:56;;;;;;;3.47;2.77;;;;;;;16.85;34.99;99592.23;1727258;81;21615;-68
2022/05/25 01:16:14;;;;;;;4.15;2.80;;;;;;;16.89;35.58;99597.70;1725072;81;21502;-68
2022/05/25 01:18:55;;;;;;;3.87;2.50;;;;;;;16.77;35.27;99593.72;1730674;81;21150;-68
2022/05/25 01:21:31;;;;;;;5.55;3.00;;;;;;;17.01;34.71;99594.69;1725964;81;21457;-68
2022/05/25 01:24:09;;;;;;;6.37;2.37;;;;;;;17.27;33.90;99592.84;1726111;81;21903;-68
2022/05/25 01:26:59;;;;;;;3.98;2.50;;;;;;;16.97;34.29;99589.69;1725545;81;21015;-68
2022/05/25 01:29:57;;;;;;;5.10;2.67;;;;;;;17.23;34.06;99593.16;1685590;83;20960;-68
2022/05/25 01:32:38;;;;;;;3.77;3.10;;;;;;;17.16;34.15;99601.19;1644761;83;20994;-68
2022/05/25 01:35:30;;;;;;;6.45;3.92;;;;;;;17.13;35.45;99604.44;1686365;83;20973;-67
2022/05/25 01:38:09;;;;;;;5.20;3.87;;;;;;;16.53;37.41;99602.39;1684278;83;21813;-67
2022/05/25 01:41:06;;;;;;;4.45;3.40;;;;;;;16.60;37.84;99608.99;1685290;83;21442;-67
2022/05/25 01:43:39;;;;;;;3.58;2.80;;;;;;;16.34;38.63;99606.29;1652120;83;21441;-67
2022/05/25 01:46:11;;;;;;;4.53;2.75;;;;;;;16.22;37.18;99607.13;1685462;83;21437;-67
2022/05/25 01:48:39;;;;;;;3.85;2.45;;;;;;;16.45;35.72;99601.59;1687507;83;21583;-67
2022/05/25 01:51:13;;;;;;;3.72;2.47;;;;;;;16.72;35.01;99604.15;1685855;83;21931;-68
2022/05/25 01:53:44;;;;;;;4.17;2.62;;;;;;;16.91;35.06;99602.46;1687098;83;21438;-68
2022/05/25 01:56:13;;;;;;;3.40;3.10;;;;;;;16.93;35.28;99606.31;1685739;83;21556;-68
2022/05/25 01:58:44;;;;;;;6.50;2.62;;;;;;;16.88;35.54;99610.63;1682576;81;21012;-68
2022/05/25 02:01:11;;;;;;;3.85;2.52;;;;;;;16.74;35.65;99605.37;1686688;83;21539;-71
2022/05/25 02:06:59;;;;;;;3.08;2.20;;;;;;;16.71;34.01;99606.45;1685244;83;21490;-69
2022/05/25 02:10:07;;;;;;;4.22;2.75;;;;;;;16.85;33.95;99612.16;1685391;83;21514;-69
2022/05/25 02:13:03;;;;;;;8.28;3.62;;;;;;;16.78;34.87;99614.83;1686248;83;20990;-69
2022/05/25 02:15:50;;;;;;;4.17;3.15;;;;;;;16.57;36.53;99617.64;1674474;83;21073;-69
2022/05/25 02:18:31;;;;;;;4.15;2.35;;;;;;;16.36;36.50;99620.78;1690457;83;21849;-67
2022/05/25 02:21:26;;;;;;;2.67;2.47;;;;;;;16.28;36.25;99617.81;1682993;83;21640;-68
2022/05/25 02:24:01;;;;;;;3.75;2.50;;;;;;;16.22;36.16;99621.72;1686379;83;21513;-68
2022/05/25 02:26:35;;;;;;;4.58;2.50;;;;;;;16.28;35.15;99625.77;1685651;83;21552;-68
2022/05/25 02:29:18;;;;;;;2.85;2.58;;;;;;;16.36;35.24;99627.42;1686165;83;21680;-68
2022/05/25 02:31:59;;;;;;;3.67;2.50;;;;;;;16.52;34.85;99628.09;1682793;83;21982;-68
2022/05/25 02:34:27;;;;;;;2.87;2.40;;;;;;;16.61;34.96;99626.60;1685941;83;21497;-69
2022/05/25 02:36:55;;;;;;;3.45;2.42;;;;;;;16.62;35.63;99629.64;1686653;83;21025;-67
2022/05/25 02:39:21;;;;;;;4.40;2.27;;;;;;;16.58;35.80;99622.84;1685628;83;28706;-69
2022/05/25 02:41:54;;;;;;;3.22;2.42;;;;;;;16.55;34.87;99615.92;1666693;83;21604;-68
2022/05/25 02:44:21;;;;;;;2.52;2.33;;;;;;;16.62;34.44;99626.14;1686130;83;22230;-67
2022/05/25 02:46:50;;;;;;;3.50;2.37;;;;;;;16.67;34.48;99631.97;1685893;83;21604;-67
2022/05/25 02:49:17;;;;;;;6.37;3.00;;;;;;;16.74;34.90;99630.59;1688374;83;21453;-67
2022/05/25 02:51:44;;;;;;;2.47;2.10;;;;;;;16.71;34.77;99629.50;1688461;83;21573;-67
2022/05/25 02:54:11;;;;;;;2.47;2.27;;;;;;;16.73;35.11;99638.20;1685902;83;21610;-68
2022/05/25 02:56:38;;;;;;;2.60;2.40;;;;;;;16.67;36.18;99643.91;1685695;83;21930;-67
2022/05/25 02:59:05;;;;;;;7.20;3.58;;;;;;;16.54;36.88;99644.77;1687566;83;21446;-67
2022/05/25 03:01:32;;;;;;;4.97;3.22;;;;;;;16.15;39.03;99650.44;1686700;83;21060;-67
2022/05/25 03:03:59;;;;;;;3.62;3.30;;;;;;;15.81;39.42;99652.27;1685001;83;21197;-67
2022/05/25 03:06:25;;;;;;;4.30;3.72;;;;;;;15.57;39.89;99656.82;1685856;83;20961;-67
2022/05/25 03:08:52;;;;;;;5.33;3.70;;;;;;;15.48;40.71;99658.72;1685717;83;22112;-67
2022/05/25 03:11:19;;;;;;;5.22;3.40;;;;;;;15.54;41.30;99654.39;1685979;83;21584;-67
2022/05/25 03:13:48;;;;;;;5.97;3.30;;;;;;;15.29;41.50;99660.34;1686684;83;21470;-68
2022/05/25 03:16:15;;;;;;;5.37;3.30;;;;;;;15.33;41.54;99661.41;1712043;81;21479;-67
2022/05/25 03:18:43;;;;;;;4.33;3.50;;;;;;;15.37;41.52;99659.42;1748992;80;21647;-68
2022/05/25 03:21:10;;;;;;;6.17;3.00;;;;;;;15.55;41.22;99662.70;1748562;80;21876;-68
2022/05/25 03:23:37;;;;;;;5.00;2.77;;;;;;;15.60;41.48;99657.96;1749433;80;21467;-68
2022/05/25 03:26:03;;;;;;;3.80;3.03;;;;;;;15.79;40.50;99660.32;1748800;80;21454;-68
2022/05/25 03:28:30;;;;;;;3.25;2.95;;;;;;;15.95;40.39;99662.37;1754559;80;21455;-69
2022/05/25 03:30:57;;;;;;;4.58;2.90;;;;;;;16.18;40.12;99660.47;1748800;80;21006;-67
2022/05/25 03:33:24;;;;;;;2.80;2.60;;;;;;;16.35;39.86;99653.11;1754346;79;21886;-68
2022/05/25 03:35:51;;;;;;;2.92;2.72;;;;;;;16.51;39.47;99658.23;1748466;80;22182;-68
2022/05/25 03:38:18;;;;;;;3.80;2.40;;;;;;;16.72;39.62;99659.06;1746285;80;21539;-68
2022/05/25 03:40:44;;;;;;;3.25;2.95;;;;;;;16.78;40.00;99659.12;1748137;80;20962;-68
2022/05/25 03:43:12;;;;;;;3.98;2.77;;;;;;;16.88;39.58;99657.09;1748857;80;21512;-68
2022/05/25 03:45:39;;;;;;;2.62;2.42;;;;;;;17.02;39.25;99659.28;1757385;80;22107;-68
2022/05/25 03:48:07;;;;;;;4.13;2.77;;;;;;;17.08;38.94;99663.70;1752819;80;21575;-68
2022/05/25 03:50:35;;;;;;;2.83;2.62;;;;;;;17.22;37.96;99661.88;1747400;81;25612;-67
2022/05/25 03:53:02;;;;;;;2.67;2.47;;;;;;;17.37;38.55;99659.95;1748362;80;21502;-66
2022/05/25 03:55:29;;;;;;;3.20;2.87;;;;;;;15.50;39.36;99669.62;1748029;80;21414;-67
2022/05/25 03:57:55;;;;;;;3.20;2.20;;;;;;;15.50;39.36;99669.62;1759433;80;22252;-67
2022/05/25 04:00:23;;;;;;;4.15;2.77;;;;;;;17.47;37.90;99663.64;1748916;80;21444;-67
2022/05/25 04:02:50;;;;;;;;;;;;;;;17.92;37.16;99661.32;1751754;80;21514;-67
2022/05/25 04:05:18;;;;;;;2.47;2.27;;;;;;;18.02;36.94;99665.48;1748642;80;20466;-66
2022/05/25 04:07:47;;;;;;;2.65;2.45;;;;;;;18.08;37.05;99671.67;1750346;80;22293;-67
2022/05/25 04:10:19;;;;;;;8.55;2.52;;;;;;;18.21;37.57;99672.47;1746652;80;21875;-65
2022/05/25 04:12:47;;;;;;;5.03;2.42;;;;;;;18.26;37.42;99674.80;1749877;80;21431;-67
2022/05/25 04:15:17;;;;;;;5.37;2.30;;;;;;;18.31;37.20;99679.31;1749380;80;21002;-65
2022/05/25 04:17:44;;;;;;;2.75;2.55;;;;;;;18.35;37.50;99677.27;1748207;80;21426;-66
2022/05/25 04:20:12;;;;;;;10.93;2.42;;;;;;;18.48;37.11;99676.72;1748706;80;20996;-65
2022/05/25 04:22:39;;;;;;;5.25;2.77;;;;;;;18.64;36.85;99688.37;1749526;80;21758;-66
2022/05/25 04:25:10;;;;;;;3.10;2.37;;;;;;;18.23;37.87;99689.66;1746169;80;21426;-66
2022/05/25 04:27:38;;;;;;;2.40;2.20;;;;;;;18.85;36.68;99691.25;1747829;81;20974;-65
2022/05/25 04:30:07;;;;;;;4.92;2.35;;;;;;;18.90;36.56;99697.08;1747432;80;21485;-65
2022/05/25 04:32:34;;;;;;;3.30;2.47;;;;;;;19.08;35.87;99697.49;1748255;80;21541;-67
2022/05/25 04:35:03;;;;;;;2.40;2.20;;;;;;;19.11;36.05;99697.23;1748658;80;21487;-66
2022/05/25 04:40:15;;;;;;;4.70;2.58;;;;;;;19.21;36.57;99697.36;1743523;80;20463;-66
2022/05/25 04:42:43;;;;;;;3.12;2.47;;;;;;;19.21;36.03;99691.58;1754038;80;21524;-66
2022/05/25 04:45:10;;;;;;;2.97;2.60;;;;;;;19.32;35.96;99692.04;1745251;80;21548;-67
2022/05/25 04:47:40;;;;;;;4.33;2.35;;;;;;;19.35;35.72;99696.30;1748490;80;22108;-67
2022/05/25 04:50:09;;;;;;;3.95;2.17;;;;;;;19.36;35.61;99697.98;1748921;80;21083;-67
2022/05/25 04:52:36;;;;;;;3.90;2.30;;;;;;;19.46;35.62;99698.97;1744207;80;20968;-68
2022/05/25 04:55:04;;;;;;;;;;;;;;;19.58;35.07;99697.98;1751220;80;21539;-67
2022/05/25 04:57:31;;;;;;;3.90;2.50;;;;;;;19.69;35.31;99699.80;1748395;80;20476;-69
2022/05/25 05:00:00;;;;;;;4.67;2.40;;;;;;;19.65;35.07;99704.53;1748500;80;21640;-66
2022/05/25 05:02:28;;;;;;;2.72;2.00;;;;;;;19.98;34.82;99700.14;1753268;80;21454;-66
2022/05/25 05:04:56;;;;;;;2.42;2.02;;;;;;;20.02;34.47;99702.08;1750862;80;21510;-66
2022/05/25 05:07:31;;;;;;;2.92;2.27;;;;;;;20.09;33.66;99699.27;1748677;80;22236;-66
2022/05/25 05:10:00;;;;;;;3.20;2.45;;;;;;;19.48;35.83;99702.83;1748508;80;21603;-71
2022/05/25 05:12:29;;;;;;;2.55;2.00;;;;;;;20.44;34.18;99700.88;1749749;80;21103;-67
2022/05/25 05:15:00;;;;;;;6.42;2.30;;;;;;;20.68;33.71;99699.35;1748237;80;21016;-66
2022/05/25 05:17:27;;;;;;;8.18;2.60;;;;;;;20.69;33.73;99697.52;1748316;80;20966;-68
2022/05/25 05:20:06;;;;;;;3.27;2.45;;;;;;;20.75;33.57;99695.66;1752452;80;21081;-67
2022/05/25 05:22:34;;;;;;;2.60;2.37;;;;;;;20.89;33.17;99700.69;1679339;81;21585;-69
2022/05/25 05:25:01;;;;;;;2.70;2.10;;;;;;;20.99;32.90;99697.58;1745581;81;21884;-67
2022/05/25 05:27:28;;;;;;;6.37;2.83;;;;;;;21.11;32.87;99704.19;1747210;80;21603;-67
2022/05/25 05:29:59;;;;;;;3.67;2.40;;;;;;;21.02;31.87;99704.51;1748105;80;21494;-67
2022/05/25 05:32:27;;;;;;;4.03;2.77;;;;;;;21.16;31.90;99706.83;1749105;80;21451;-67
2022/05/25 05:34:54;;;;;;;2.80;2.50;;;;;;;21.20;31.67;99706.91;1748122;80;21012;-67
2022/05/25 05:37:25;;;;;;;5.97;2.35;;;;;;;21.46;31.51;99709.70;1748569;80;21776;-69
2022/05/25 05:39:54;;;;;;;3.10;2.42;;;;;;;21.40;30.66;99711.05;1748017;80;21595;-68
2022/05/25 05:42:20;;;;;;;3.20;2.33;;;;;;;21.58;31.07;99711.28;1748842;80;21509;-68
2022/05/25 05:44:55;;;;;;;4.37;2.30;;;;;;;21.69;30.61;99714.36;1749547;80;21491;-70
2022/05/25 05:47:29;;;;;;;3.17;2.50;;;;;;;21.81;30.67;99711.08;1744293;80;20997;-63
2022/05/25 05:49:57;;;;;;;3.30;2.20;;;;;;;21.83;30.38;99709.98;1739286;79;21944;-67
2022/05/25 05:52:25;;;;;;;6.33;2.27;;;;;;;21.89;30.41;99712.10;1724416;80;21586;-66
2022/05/25 05:54:52;;;;;;;3.98;2.22;;;;;;;21.97;30.93;99710.91;1728390;80;21513;-65
2022/05/25 05:57:19;;;;;;;3.80;2.37;;;;;;;22.04;30.67;99715.23;1726193;80;21561;-64
2022/05/25 05:59:45;;;;;;;3.55;2.47;;;;;;;22.24;31.04;99712.59;1735964;79;21605;-65
2022/05/25 06:02:12;;;;;;;3.52;2.37;;;;;;;22.29;30.03;99712.55;1739402;80;21724;-60
2022/05/25 06:04:38;;;;;;;2.30;2.08;;;;;;;22.45;29.29;99709.81;1732847;80;21545;-58
2022/05/25 06:07:05;;;;;;;3.02;1.98;;;;;;;22.47;29.86;99710.05;1738065;80;21572;-60
2022/05/25 06:09:33;;;;;;;;;;;;;;;22.58;29.49;99713.05;1738463;80;21052;-60
2022/05/25 06:12:00;;;;;;;5.22;2.67;;;;;;;22.68;29.50;99715.76;1731865;80;20440;-60
2022/05/25 06:14:27;;;;;;;4.22;2.62;;;;;;;22.64;28.64;99712.98;1731636;80;21841;-66
2022/05/25 06:19:40;;;;;;;5.95;2.25;;;;;;;22.60;27.73;99716.44;1725040;80;21546;-67
2022/05/25 06:22:12;;;;;;;7.20;2.98;;;;;;;22.86;28.37;99715.36;1731138;80;21480;-62
2022/05/25 06:24:42;;;;;;;3.12;2.40;;;;;;;22.94;28.35;99714.64;1729053;80;21560;-62
2022/05/25 06:27:11;;;;;;;2.52;1.98;;;;;;;23.03;27.98;99715.63;1730954;81;21891;-61
2022/05/25 06:29:43;;;;;;;3.05;2.05;;;;;;;23.18;28.04;99714.22;1735513;80;21551;-64
2022/05/25 06:32:11;;;;;;;4.62;2.25;;;;;;;23.18;27.53;99712.03;1735121;80;21669;-59
2022/05/25 06:34:38;;;;;;;2.92;2.10;;;;;;;23.29;27.44;99715.38;1748257;80;21486;-59
2022/05/25 06:37:05;;;;;;;;;;;;;;;23.34;27.24;99713.63;1757462;80;21450;-64
2022/05/25 06:39:36;;;;;;;6.80;2.55;;;;;;;23.46;27.65;99714.28;1757847;80;22001;-64
2022/05/25 06:42:05;;;;;;;4.33;2.00;;;;;;;23.49;27.08;99715.34;1748025;80;21016;-64
2022/05/25 06:44:32;;;;;;;3.52;2.15;;;;;;;23.49;27.14;99712.15;1748007;80;21509;-64
2022/05/25 06:46:59;;;;;;;2.77;2.10;;;;;;;23.42;27.15;99727.14;1714878;81;21518;-64
2022/05/25 06:49:25;;;;;;;5.47;2.25;;;;;;;23.46;27.19;99725.84;1746758;80;21427;-64
2022/05/25 06:51:53;;;;;;;;;;;;;;;23.59;26.57;99726.86;1756270;80;21793;-64
2022/05/25 06:54:20;;;;;;;2.90;2.10;;;;;;;23.65;26.66;99718.22;1743663;80;20433;-64
2022/05/25 06:56:47;;;;;;;3.00;2.22;;;;;;;23.68;26.86;99720.61;1759869;80;21461;-65
2022/05/25 06:59:14;;;;;;;2.80;2.27;;;;;;;23.70;26.41;99723.99;1749122;80;21598;-64
2022/05/25 07:01:41;;;;;;;2.55;2.35;;;;;;;23.93;26.15;99723.62;1759404;80;21469;-64
2022/05/25 07:04:08;;;;;;;2.50;2.00;;;;;;;23.92;26.08;99723.77;1749260;80;21799;-64
2022/05/25 07:06:38;;;;;;;4.92;2.15;;;;;;;23.92;25.90;99723.27;1759465;80;21486;-64
2022/05/25 07:09:06;;;;;;;2.08;1.87;;;;;;;24.00;25.83;99723.38;1715567;81;21063;-64
2022/05/25 07:11:33;;;;;;;2.20;2.00;;;;;;;24.10;25.64;99721.98;1746547;80;21566;-63
2022/05/25 07:14:01;;;;;;;5.15;2.05;;;;;;;24.05;25.52;99721.10;1753233;80;21637;-63
2022/05/25 07:16:28;;;;;;;2.55;2.00;;;;;;;24.15;25.62;99724.20;1741971;80;21761;-72
2022/05/25 07:18:55;;;;;;;1.72;1.62;;;;;;;24.30;25.78;99720.02;1731416;80;21080;-68
2022/05/25 07:21:25;;;;;;;2.72;2.20;;;;;;;24.49;25.53;99723.89;1732199;80;21603;-68
2022/05/25 07:23:54;;;;;;;2.67;1.92;;;;;;;24.66;25.32;99724.08;1737665;80;21593;-67
2022/05/25 07:26:24;;;;;;;3.20;1.85;;;;;;;24.71;25.15;99728.47;1722951;80;21555;-67
2022/05/25 07:31:50;;;;;;;16.23;3.37;;;;;;;24.66;24.44;99720.89;1710184;81;21541;-65
2022/05/25 07:34:25;;;;;;;5.87;1.90;;;;;;;24.58;25.02;99720.83;1712960;81;21612;-73
2022/05/25 07:36:58;;;;;;;2.67;1.50;;;;;;;24.58;26.19;99720.83;1711294;81;21635;-64
2022/05/25 07:39:32;;;;;;;1.75;1.20;;;;;;;24.77;25.05;99724.32;1718991;81;21433;-67
2022/05/25 07:41:59;;;;;;;3.70;1.60;;;;;;;24.78;25.16;99725.52;1711102;81;21813;-64
2022/05/25 07:44:30;;;;;;;2.50;1.70;;;;;;;24.79;24.46;99724.53;1676215;83;24277;-67
2022/05/25 07:46:57;;;;;;;3.37;1.70;;;;;;;24.78;24.37;99716.11;1696150;83;20947;-66
2022/05/25 07:49:26;;;;;;;1.95;1.42;;;;;;;24.87;24.22;99715.68;1718898;81;21493;-66
2022/05/25 07:51:53;;;;;;;1.60;1.47;;;;;;;24.88;23.87;99716.01;1736256;81;21048;-66
2022/05/25 07:54:20;;;;;;;4.30;1.52;;;;;;;24.80;24.10;99722.17;1723141;81;21874;-66
2022/05/25 07:56:47;;;;;;;1.80;1.40;;;;;;;24.82;24.05;99722.86;1762737;78;21590;-69
2022/05/25 07:59:15;;;;;;;2.52;1.37;;;;;;;24.80;24.42;99726.20;1779427;78;21542;-67
2022/05/25 08:07:23;;;;;;;2.65;1.77;;;;;;;25.17;23.61;99713.55;1776010;78;21782;-67
2022/05/25 08:09:54;;;;;;;4.10;1.85;;;;;;;25.24;24.60;99717.30;1783683;78;20986;-68
2022/05/25 08:12:22;;;;;;;2.75;1.77;;;;;;;25.39;23.22;99716.22;1773586;78;21515;-68
2022/05/25 08:14:50;;;;;;;1.87;1.75;;;;;;;25.48;23.70;99703.15;1779080;78;21524;-70
2022/05/25 08:17:17;;;;;;;2.17;1.75;;;;;;;25.48;23.70;99703.15;1779553;78;21457;-67
2022/05/25 08:19:44;;;;;;;;;;;;;;;25.53;23.24;99712.94;1774083;78;21988;-67
2022/05/25 08:22:11;;;;;;;2.12;1.90;;;;;;;25.53;23.63;99717.48;1774835;78;20406;-66
2022/05/25 08:24:39;;;;;;;2.10;1.90;;;;;;;25.54;23.78;99708.39;1780527;78;21371;-67
2022/05/25 08:27:06;;;;;;;2.02;1.75;;;;;;;25.61;23.90;99715.66;1778768;78;21584;-68
2022/05/25 08:29:33;;;;;;;6.72;1.85;;;;;;;25.68;24.07;99711.83;1785547;78;21142;-68
2022/05/25 08:31:59;;;;;;;5.85;2.10;;;;;;;25.74;23.24;99709.00;1776133;78;21875;-66
2022/05/25 08:34:27;;;;;;;3.37;1.70;;;;;;;25.86;23.93;99706.84;1778829;78;21457;-67
2022/05/25 08:36:54;;;;;;;5.78;2.25;;;;;;;25.98;24.65;99719.05;1765397;78;26509;-67
2022/05/25 08:39:21;;;;;;;3.55;1.87;;;;;;;25.89;24.00;99715.95;1775349;78;21397;-66
2022/05/25 08:41:49;;;;;;;3.53;1.87;;;;;;;25.92;23.66;99719.69;1782597;78;21518;-67
2022/05/25 08:44:16;;;;;;;3.90;2.00;;;;;;;25.93;22.98;99711.45;1776874;78;22161;-66
2022/05/25 08:47:28;;;;;;;2.25;2.00;;;;;;;25.21;24.49;99698.27;1775075;78;23190;-65
2022/05/25 08:49:54;;;;;;;4.55;1.55;;;;;;;26.35;23.26;99698.91;1738436;80;21553;-66
2022/05/25 08:52:26;;;;;;;2.37;1.70;;;;;;;26.35;23.26;99698.91;1747786;80;21808;-66
2022/05/25 08:54:53;;;;;;;2.00;1.77;;;;;;;26.37;22.89;99704.98;1694279;81;21067;-67
2022/05/25 08:57:31;;;;;;;1.67;1.57;;;;;;;26.53;22.97;99702.31;1711073;81;21532;-67
2022/05/25 09:00:06;;;;;;;3.15;1.65;;;;;;;26.48;23.16;99699.78;1702247;83;21668;-66
2022/05/25 09:02:58;;;;;;;2.37;1.60;;;;;;;26.51;22.22;99696.76;1699113;83;21494;-67
2022/05/25 09:05:42;;;;;;;2.20;1.47;;;;;;;26.51;22.22;99696.76;1704044;83;21537;-68
2022/05/25 09:08:48;;;;;;;2.05;1.57;;;;;;;26.41;22.31;99697.76;1702396;83;21607;-66
2022/05/25 09:11:24;;;;;;;3.60;1.67;;;;;;;26.48;22.09;99694.39;1685987;82;21468;-68
2022/05/25 09:14:01;;;;;;;1.90;1.75;;;;;;;26.57;21.95;99686.13;1688178;82;21519;-66
2022/05/25 09:16:30;;;;;;;1.67;1.55;;;;;;;26.64;22.53;99688.20;1687031;82;21632;-68
2022/05/25 09:19:23;;;;;;;3.60;1.77;;;;;;;26.72;22.47;99693.59;1699069;82;21972;-69
2022/05/25 09:22:00;;;;;;;3.80;1.70;;;;;;;26.76;22.70;99685.49;1697967;82;21530;-67
2022/05/25 09:24:27;;;;;;;2.42;1.65;;;;;;;26.77;21.96;99686.67;1701469;82;21621;-66
2022/05/25 09:26:54;;;;;;;4.05;1.57;;;;;;;26.78;22.04;99685.64;1691393;82;21538;-67
2022/05/25 09:29:22;;;;;;;3.27;2.10;;;;;;;26.62;22.50;99684.33;1697276;82;21506;-67
2022/05/25 09:32:18;;;;;;;3.15;1.82;;;;;;;26.70;22.53;99682.97;1695948;82;21570;-66
2022/05/25 09:35:07;;;;;;;1.70;1.60;;;;;;;26.74;22.74;99676.22;1702171;82;21612;-66
2022/05/25 09:37:44;;;;;;;4.15;2.15;;;;;;;26.75;22.62;99673.03;1699938;82;21012;-66
2022/05/25 09:40:25;;;;;;;3.30;1.50;;;;;;;26.78;22.39;99676.20;1703919;82;21102;-67
2022/05/25 09:42:56;;;;;;;2.47;1.50;;;;;;;26.81;22.13;99677.75;1701232;82;21513;-65
2022/05/25 09:45:22;;;;;;;3.65;1.60;;;;;;;26.47;21.42;99676.55;1705083;82;22130;-67
2022/05/25 09:47:50;;;;;;;1.35;1.20;;;;;;;26.47;21.42;99676.55;1708280;82;21502;-68
2022/05/25 09:50:29;;;;;;;4.92;1.62;;;;;;;26.64;22.07;99678.77;1709246;82;21050;-67
2022/05/25 09:52:56;;;;;;;1.87;1.37;;;;;;;26.64;22.07;99678.77;1703682;82;21533;-70
2022/05/25 09:55:42;;;;;;;2.08;1.52;;;;;;;26.70;22.81;99673.53;1701065;83;21474;-67
2022/05/25 09:58:34;;;;;;;1.60;1.50;;;;;;;26.78;22.25;99670.81;1698510;81;21905;-67
2022/05/25 10:01:25;;;;;;;5.72;1.32;;;;;;;26.83;22.40;99677.06;1697923;81;21525;-67
2022/05/25 10:03:52;;;;;;;4.20;1.55;;;;;;;26.83;21.81;99677.58;1694739;83;21049;-67
2022/05/25 10:06:35;;;;;;;1.80;1.47;;;;;;;26.98;22.52;99673.17;1687505;83;21066;-68
2022/05/25 10:09:28;;;;;;;2.12;1.57;;;;;;;27.13;21.54;99666.57;1690025;82;21565;-64
2022/05/25 10:11:59;;;;;;;1.60;1.50;;;;;;;27.30;21.66;99664.70;1659110;83;21902;-66
2022/05/25 10:14:35;;;;;;;1.98;1.62;;;;;;;27.52;21.83;99663.95;1689586;83;21041;-67
2022/05/25 10:17:11;;;;;;;2.12;1.70;;;;;;;27.66;21.68;99640.75;1705810;82;21647;-68
2022/05/25 10:19:49;;;;;;;2.47;1.60;;;;;;;27.94;21.07;99651.11;1686006;82;21511;-67
2022/05/25 10:22:31;;;;;;;2.92;1.47;;;;;;;28.01;20.63;99652.57;1699371;82;20982;-67
2022/05/25 10:25:19;;;;;;;16.32;1.67;;;;;;;27.85;21.26;99652.97;1706820;82;22078;-69
2022/05/25 10:27:46;;;;;;;1.30;1.20;;;;;;;27.60;21.22;99636.06;1694152;82;21475;-67
2022/05/25 10:36:47;;;;;;;1.98;1.30;;;;;;;27.54;20.65;99644.88;1693118;82;21624;-67
2022/05/25 10:39:19;;;;;;;2.90;1.52;;;;;;;27.58;20.87;99642.98;1695642;82;21908;-63
2022/05/25 10:42:06;;;;;;;1.57;1.47;;;;;;;27.54;20.74;99641.66;1696029;82;21404;-63
2022/05/25 10:44:50;;;;;;;3.85;1.65;;;;;;;27.45;20.80;99633.27;1672247;82;21613;-64
2022/05/25 10:47:52;;;;;;;1.20;1.10;;;;;;;27.56;21.33;99634.22;1687947;83;21074;-64
2022/05/25 10:50:35;;;;;;;2.67;1.40;;;;;;;27.62;20.58;99635.89;1680802;83;21534;-62
2022/05/25 10:53:28;;;;;;;1.40;1.30;;;;;;;27.63;20.59;99628.94;1680176;83;21877;-64
2022/05/25 10:56:27;;;;;;;7.97;3.40;;;;;;;27.70;20.90;99630.44;1678332;83;21544;-67
2022/05/25 10:59:17;;;;;;;5.40;4.70;;;;;;;27.69;20.64;99632.31;1683782;83;21053;-63
2022/05/25 11:02:17;;;;;;;1.95;1.80;;;;;;;27.77;20.79;99635.47;1679204;82;21091;-65
2022/05/25 11:05:16;;;;;;;4.35;2.20;;;;;;;27.16;21.15;99632.47;1598895;86;21842;-64
2022/05/25 11:07:44;;;;;;;5.20;3.62;;;;;;;24.35;23.42;99629.55;1724627;80;21794;-63
2022/05/25 11:10:18;;;;;;;;;;;;;;;24.00;24.83;99629.91;1675128;83;21618;-63
2022/05/25 11:13:19;;;;;;;3.37;1.60;;;;;;;23.76;24.31;99631.80;1674910;83;20181;-63
2022/05/25 11:16:02;;;;;;;1.70;1.60;;;;;;;23.76;24.31;99631.80;1672472;83;21465;-65
2022/05/25 11:19:05;;;;;;;1.77;1.50;;;;;;;23.64;24.78;99632.00;1683162;83;21611;-64
2022/05/25 11:21:38;;;;;;;4.92;1.80;;;;;;;23.55;25.12;99630.21;1666874;84;21491;-65
2022/05/25 11:24:19;;;;;;;2.75;1.50;;;;;;;23.55;25.12;99630.21;1668924;83;21430;-62
2022/05/25 11:27:14;;;;;;;3.40;1.47;;;;;;;23.36;24.70;99635.66;1715942;80;21443;-62
2022/05/25 11:29:56;;;;;;;2.30;1.60;;;;;;;23.47;25.00;99632.30;1735692;80;21009;-63
2022/05/25 11:32:40;;;;;;;3.98;1.32;;;;;;;23.52;24.30;99626.48;1730379;80;21514;-64
2022/05/25 11:35:39;;;;;;;3.27;1.40;;;;;;;23.64;24.22;99627.98;1692846;83;21880;-67
2022/05/25 11:38:18;;;;;;;1.87;1.37;;;;;;;23.71;24.01;99625.05;1684644;82;21624;-63
2022/05/25 11:40:57;;;;;;;2.40;1.37;;;;;;;23.67;23.56;99629.00;1718510;81;21499;-66
2022/05/25 11:43:33;;;;;;;3.05;1.60;;;;;;;23.65;23.29;99620.77;1680055;80;21358;-62
2022/05/25 11:46:11;;;;;;;1.30;1.20;;;;;;;26.86;21.15;99616.53;1720125;80;21537;-63
2022/05/25 11:49:15;;;;;;;1.87;1.37;;;;;;;23.86;23.77;99617.83;1723312;80;21915;-63
2022/05/25 11:51:55;;;;;;;3.02;1.50;;;;;;;23.86;23.77;99617.83;1706309;80;21583;-63
2022/05/25 11:54:42;;;;;;;2.65;1.45;;;;;;;26.86;22.19;99605.74;1710799;80;21486;-63
2022/05/25 11:57:22;;;;;;;;;;;;;;;28.49;19.56;99601.36;1739480;80;21656;-65
2022/05/25 12:00:09;;;;;;;2.47;1.27;;;;;;;28.65;18.47;99598.20;1721304;80;20433;-62
2022/05/25 12:03:15;;;;;;;2.05;1.25;;;;;;;28.63;18.65;99590.30;1725344;80;22516;-61
2022/05/25 12:06:19;;;;;;;2.15;1.52;;;;;;;28.65;18.65;99585.53;1728261;81;21534;-62
2022/05/25 12:09:01;;;;;;;4.08;1.80;;;;;;;28.61;18.76;99582.84;1718013;80;21463;-61
2022/05/25 12:11:49;;;;;;;3.27;1.55;;;;;;;28.63;19.52;99579.47;1728831;80;21603;-64
2022/05/25 12:14:44;;;;;;;1.52;1.40;;;;;;;28.73;19.08;99588.15;1728929;80;20990;-64
2022/05/25 12:17:29;;;;;;;3.72;1.65;;;;;;;28.73;19.16;99580.55;1719696;80;21688;-63
2022/05/25 12:19:56;;;;;;;1.87;1.37;;;;;;;28.68;19.29;99581.09;1711129;80;21487;-64
2022/05/25 12:22:32;;;;;;;2.98;1.50;;;;;;;28.64;18.80;99569.48;1727610;80;21408;-65
2022/05/25 12:25:07;;;;;;;1.80;1.30;;;;;;;28.58;18.23;99562.12;1724576;80;21534;-63
2022/05/25 12:27:40;;;;;;;2.02;1.37;;;;;;;28.49;18.71;99569.43;1686236;82;21523;-65
2022/05/25 12:30:11;;;;;;;3.08;1.27;;;;;;;28.25;17.47;99568.61;1726538;80;21888;-63
2022/05/25 12:32:38;;;;;;;1.45;1.35;;;;;;;28.25;17.94;99573.19;1680855;82;20967;-63
2022/05/25 12:35:06;;;;;;;;;;;;;;;28.18;17.78;99580.33;1689622;82;21357;-61